createdAt,value
2018-11-07T00:02:49.364Z,89.74
2018-11-07T00:07:46.925Z,90.92
2018-11-07T00:12:44.311Z,90.64
2018-11-07T00:17:42.026Z,90.57
2018-11-07T00:22:39.772Z,91.35
2018-11-07T00:27:37.268Z,90.93
2018-11-07T00:32:34.703Z,91.82
2018-11-07T00:37:32.132Z,92.59
2018-11-07T00:42:29.630Z,92.06
2018-11-07T00:47:27.443Z,90.38
2018-11-07T00:52:24.879Z,90.17
2018-11-07T00:57:22.307Z,92.04
2018-11-07T01:02:19.908Z,91.52
2018-11-07T01:07:17.331Z,91.19
2018-11-07T01:12:14.763Z,91.67
2018-11-07T01:17:12.197Z,92.13
2018-11-07T01:22:09.693Z,90.77
2018-11-07T01:27:07.138Z,92.02
2018-11-07T01:32:04.703Z,92.15
2018-11-07T01:37:02.136Z,92.87
2018-11-07T01:41:59.657Z,92.01
2018-11-07T01:46:58.112Z,93.01
2018-11-07T01:51:55.553Z,92.64
2018-11-07T01:56:53.074Z,92.84
2018-11-07T02:01:50.520Z,91.02
2018-11-07T02:06:47.960Z,92.58
2018-11-07T02:11:45.423Z,91.81
2018-11-07T02:16:44.226Z,91.39
2018-11-07T02:21:41.667Z,90.86
2018-11-07T02:26:39.107Z,92.32
2018-11-07T02:31:36.568Z,91.14
2018-11-07T02:36:34.025Z,91.30
2018-11-07T02:41:31.466Z,92.24
2018-11-07T02:46:30.079Z,91.56
2018-11-07T02:51:27.517Z,91.14
2018-11-07T02:56:24.997Z,92.50
2018-11-07T03:01:22.477Z,93.00
2018-11-07T03:06:19.968Z,93.46
2018-11-07T03:11:17.401Z,94.33
2018-11-07T03:16:17.707Z,93.61
2018-11-07T03:21:15.302Z,94.23
2018-11-07T03:26:12.746Z,93.08
2018-11-07T03:31:10.165Z,93.79
2018-11-07T03:36:07.597Z,94.40
2018-11-07T03:41:05.149Z,92.41
2018-11-07T03:46:08.560Z,93.14
2018-11-07T03:51:06.062Z,93.23
2018-11-07T03:56:03.513Z,93.44
2018-11-07T04:01:00.972Z,94.11
2018-11-07T04:05:58.408Z,91.61
2018-11-07T04:10:55.872Z,92.65
2018-11-07T04:16:02.794Z,93.35
2018-11-07T04:21:00.287Z,93.22
2018-11-07T04:25:57.755Z,93.29
2018-11-07T04:30:55.193Z,92.33
2018-11-07T04:35:52.722Z,92.03
2018-11-07T04:40:50.228Z,93.08
2018-11-07T04:45:48.442Z,92.55
2018-11-07T04:50:45.936Z,92.18
2018-11-07T04:55:43.423Z,92.63
2018-11-07T05:00:40.845Z,92.52
2018-11-07T05:05:38.271Z,93.15
2018-11-07T05:10:35.696Z,93.12
2018-11-07T05:15:33.133Z,92.26
2018-11-07T05:20:30.568Z,90.44
2018-11-07T05:25:28.065Z,92.50
2018-11-07T05:30:25.497Z,91.16
2018-11-07T05:35:22.916Z,91.76
2018-11-07T05:40:20.365Z,92.28
2018-11-07T05:45:17.802Z,93.18
2018-11-07T05:50:15.266Z,93.47
2018-11-07T05:55:12.738Z,92.26
2018-11-07T06:00:11.375Z,92.67
2018-11-07T06:05:09.965Z,93.59
2018-11-07T06:10:09.684Z,93.90
2018-11-07T06:15:08.413Z,94.54
2018-11-07T06:20:06.713Z,94.71
2018-11-07T06:25:04.864Z,93.48
2018-11-07T06:30:02.505Z,93.80
2018-11-07T06:34:59.971Z,94.02
2018-11-07T06:39:57.509Z,94.20
2018-11-07T06:44:54.936Z,94.68
2018-11-07T06:49:52.370Z,93.84
2018-11-07T06:54:49.826Z,93.55
2018-11-07T06:59:47.305Z,93.24
2018-11-07T07:04:44.810Z,93.21
2018-11-07T07:09:42.334Z,92.06
2018-11-07T07:14:40.028Z,88.55
2018-11-07T07:19:37.485Z,88.56
2018-11-07T07:24:34.928Z,89.96
2018-11-07T07:29:32.383Z,89.69
2018-11-07T07:34:29.902Z,89.79
2018-11-07T07:39:27.341Z,89.41
2018-11-07T07:44:24.799Z,89.41
2018-11-07T07:49:22.287Z,87.69
2018-11-07T07:54:19.713Z,85.01
2018-11-07T07:59:17.265Z,84.06
2018-11-07T08:04:14.868Z,82.25
2018-11-07T08:09:13.514Z,81.23
2018-11-07T08:14:11.074Z,81.30
2018-11-07T08:19:09.245Z,80.83
2018-11-07T08:24:06.720Z,79.11
2018-11-07T08:29:04.296Z,78.69
2018-11-07T08:34:01.723Z,77.85
2018-11-07T08:38:59.176Z,78.25
2018-11-07T08:43:56.653Z,77.39
2018-11-07T08:48:54.163Z,76.97
2018-11-07T08:53:51.630Z,76.21
2018-11-07T08:58:49.140Z,75.07
2018-11-07T09:03:46.633Z,73.88
2018-11-07T09:08:44.169Z,74.29
2018-11-07T09:13:41.682Z,73.37
2018-11-07T09:18:39.168Z,72.98
2018-11-07T09:23:36.711Z,71.45
2018-11-07T09:28:34.186Z,71.27
2018-11-07T09:33:31.677Z,70.11
2018-11-07T09:38:29.122Z,70.41
2018-11-07T09:43:26.592Z,69.04
2018-11-07T09:48:24.148Z,68.63
2018-11-07T09:53:21.632Z,68.03
2018-11-07T09:58:19.101Z,67.55
2018-11-07T10:03:16.554Z,66.89
2018-11-07T10:08:14.022Z,66.14
2018-11-07T10:13:11.510Z,65.81
2018-11-07T10:18:08.966Z,64.30
2018-11-07T10:23:06.441Z,64.05
2018-11-07T10:28:04.488Z,63.29
2018-11-07T10:33:01.418Z,63.56
2018-11-07T10:37:59.045Z,63.15
2018-11-07T10:42:56.467Z,61.79
2018-11-07T10:47:55.217Z,60.68
2018-11-07T10:52:54.334Z,61.21
2018-11-07T10:57:53.920Z,60.75
2018-11-07T11:02:57.081Z,61.15
2018-11-07T11:07:54.692Z,60.10
2018-11-07T11:12:52.217Z,59.84
2018-11-07T11:17:49.712Z,60.05
2018-11-07T11:22:47.201Z,58.45
2018-11-07T11:27:44.755Z,58.36
2018-11-07T11:32:42.239Z,58.75
2018-11-07T11:37:40.143Z,56.99
2018-11-07T11:42:37.594Z,54.37
2018-11-07T11:47:35.111Z,56.49
2018-11-07T11:52:32.762Z,55.42
2018-11-07T11:57:30.317Z,54.31
2018-11-07T12:02:27.826Z,54.94
2018-11-07T12:07:25.329Z,53.76
2018-11-07T12:12:22.834Z,53.42
2018-11-07T12:17:20.415Z,53.88
2018-11-07T12:22:17.930Z,55.40
2018-11-07T12:27:15.424Z,57.30
2018-11-07T12:32:13.806Z,57.59
2018-11-07T12:37:11.281Z,57.29
2018-11-07T12:42:12.964Z,57.07
2018-11-07T12:47:10.513Z,58.13
2018-11-07T12:52:08.017Z,57.36
2018-11-07T12:57:05.576Z,58.66
2018-11-07T13:02:03.160Z,57.60
2018-11-07T13:07:00.718Z,57.26
2018-11-07T13:11:58.288Z,57.96
2018-11-07T13:17:01.076Z,59.57
2018-11-07T13:21:58.587Z,59.01
2018-11-07T13:26:56.098Z,57.99
2018-11-07T13:31:53.557Z,59.27
2018-11-07T13:36:51.163Z,58.73
2018-11-07T13:41:48.730Z,58.50
2018-11-07T13:46:47.208Z,59.59
2018-11-07T13:51:44.658Z,59.66
2018-11-07T13:56:42.188Z,58.52
2018-11-07T14:01:39.668Z,59.61
2018-11-07T14:06:37.196Z,58.30
2018-11-07T14:11:34.661Z,57.87
2018-11-07T14:16:33.228Z,59.57
2018-11-07T14:21:30.733Z,58.98
2018-11-07T14:26:28.273Z,59.44
2018-11-07T14:31:25.866Z,60.39
2018-11-07T14:36:23.479Z,60.53
2018-11-07T14:41:20.928Z,61.86
2018-11-07T14:46:28.037Z,62.94
2018-11-07T14:51:25.568Z,62.17
2018-11-07T14:56:23.027Z,63.07
2018-11-07T15:01:20.548Z,62.42
2018-11-07T15:06:18.081Z,63.11
2018-11-07T15:11:15.614Z,63.70
2018-11-07T15:16:15.444Z,64.07
2018-11-07T15:21:12.915Z,65.00
2018-11-07T15:26:10.339Z,65.92
2018-11-07T15:31:07.767Z,66.32
2018-11-07T15:36:05.288Z,67.39
2018-11-07T15:41:02.735Z,67.73
2018-11-07T15:46:07.312Z,68.78
2018-11-07T15:51:11.746Z,69.67
2018-11-07T15:56:09.410Z,69.89
2018-11-07T16:01:06.851Z,70.64
2018-11-07T16:06:04.327Z,70.09
2018-11-07T16:11:01.679Z,71.10
2018-11-07T16:16:12.453Z,70.95
2018-11-07T16:21:09.885Z,70.90
2018-11-07T16:26:07.277Z,71.29
2018-11-07T16:31:05.715Z,71.83
2018-11-07T16:36:03.091Z,71.44
2018-11-07T16:41:00.518Z,72.49
2018-11-07T16:46:05.827Z,72.45
2018-11-07T16:51:03.297Z,72.44
2018-11-07T16:56:00.669Z,71.87
2018-11-07T17:00:58.120Z,71.74
2018-11-07T17:05:55.479Z,71.96
2018-11-07T17:10:52.898Z,73.03
2018-11-07T17:15:52.337Z,73.05
2018-11-07T17:20:49.912Z,73.14
2018-11-07T17:25:47.275Z,73.26
2018-11-07T17:30:44.654Z,73.76
2018-11-07T17:35:42.055Z,73.49
2018-11-07T17:40:39.502Z,73.16
2018-11-07T17:45:36.928Z,73.45
2018-11-07T17:50:34.342Z,73.09
2018-11-07T17:55:31.742Z,73.34
2018-11-07T18:00:32.718Z,73.52
2018-11-07T18:05:30.190Z,73.37
2018-11-07T18:10:27.625Z,72.81
2018-11-07T18:15:25.094Z,73.59
2018-11-07T18:21:25.737Z,73.20
2018-11-07T18:26:23.357Z,73.77
2018-11-07T18:31:20.814Z,72.62
2018-11-07T18:36:18.191Z,73.00
2018-11-07T18:41:15.691Z,72.90
2018-11-07T18:46:19.562Z,72.49
2018-11-07T18:51:17.198Z,71.80
2018-11-07T18:56:14.573Z,72.15
2018-11-07T19:01:12.039Z,71.30
2018-11-07T19:06:09.395Z,71.70
2018-11-07T19:11:06.901Z,71.81
2018-11-07T19:16:13.153Z,71.52
2018-11-07T19:21:10.590Z,71.89
2018-11-07T19:26:09.279Z,72.03
2018-11-07T19:31:09.005Z,71.57
2018-11-07T19:36:06.491Z,72.43
2018-11-07T19:41:04.235Z,72.18
2018-11-07T19:46:06.780Z,72.37
2018-11-07T19:51:04.941Z,73.06
2018-11-07T19:56:02.354Z,73.45
2018-11-07T20:00:59.918Z,73.81
2018-11-07T20:05:57.310Z,73.85
2018-11-07T20:10:55.022Z,75.29
2018-11-07T20:15:52.482Z,75.67
2018-11-07T20:20:49.907Z,76.00
2018-11-07T20:25:47.269Z,75.86
2018-11-07T20:30:44.789Z,75.88
2018-11-07T20:35:43.752Z,75.88
2018-11-07T20:40:41.330Z,75.26
2018-11-07T20:45:39.096Z,75.37
2018-11-07T20:50:36.636Z,75.81
2018-11-07T20:55:34.032Z,76.53
2018-11-07T21:00:31.778Z,76.19
2018-11-07T21:05:29.200Z,75.79
2018-11-07T21:10:26.670Z,75.49
2018-11-07T21:15:24.160Z,76.98
2018-11-07T21:20:22.691Z,76.75
2018-11-07T21:25:20.223Z,77.02
2018-11-07T21:30:19.593Z,76.59
2018-11-07T21:35:17.277Z,76.99
2018-11-07T21:40:15.953Z,78.02
2018-11-07T21:45:14.247Z,77.93
2018-11-07T21:50:13.438Z,78.25
2018-11-07T21:55:10.862Z,78.55
2018-11-07T22:00:14.457Z,78.69
2018-11-07T22:05:12.901Z,78.74
2018-11-07T22:10:11.549Z,78.97
2018-11-07T22:15:09.623Z,79.48
2018-11-07T22:20:09.870Z,79.92
2018-11-07T22:25:07.636Z,79.60
2018-11-07T22:30:08.094Z,79.37
2018-11-07T22:35:06.547Z,79.48
2018-11-07T22:40:04.739Z,79.81
2018-11-07T22:45:04.845Z,79.80
2018-11-07T22:50:06.260Z,80.07
2018-11-07T22:55:06.387Z,79.05
2018-11-07T23:00:14.577Z,79.04
2018-11-07T23:05:13.260Z,79.46
2018-11-07T23:10:11.957Z,80.34
2018-11-07T23:15:10.865Z,80.43
2018-11-07T23:20:12.853Z,80.52
2018-11-07T23:25:15.053Z,79.23
2018-11-07T23:30:15.897Z,80.18
2018-11-07T23:35:20.418Z,80.26
2018-11-07T23:40:24.796Z,80.58
2018-11-07T23:45:23.256Z,80.85
2018-11-07T23:50:26.540Z,80.76
2018-11-07T23:55:28.081Z,80.15
